Startpagina
METAR-TAF:

METAR-TAF

Vliegvelden :

Militair vliegvled

Niederstetten, Duitsland

breedte: 49-24N, lengte: 009-58E, hoogte: 468 m

Actueel weer

Dit bericht is 49 minuten geleden gemaakt, om 20:20 UTC
Wind 26 kt uit het westen met uitschieters tot 41 kt
Temperatuur 10°C
Vochtigheid 87%
Druk 1016 hPa
Zicht: 6000 m
Verspreide wolken op 700 ft
Geheel bewolkt op 1200 ft
lichte regen

METAR: ETHN 232020Z 27026G41KT 6000 -RA SCT007 OVC012 10/08 Q1016 GRN

Tijdstip: 22:09 (21:09 UTC)


TAF: ontbreekt

Waarnemingen en weersverwachtingen van meer dan 4000 vliegvelden (METAR en TAF).

De beschikbare stations zijn de gele en rode punten op de kaart.

Ga met uw muis naar het station om de naam te zien.

Klik dan om waarnemingen en weersverwachtingen te zien.

kaart wijzigen: klik op de groene knoppen met een zwart kruis om in te zoomen, op de groene knop met een streepje om uit te zoomen of op de groene pijlen voor aangrenzende kaarten.


METAR-TAF: